الصفحة الرئيسية
METAR-TAF:

METAR-TAF

مطار :

يوبي, اليابان

دائرة عرض: 33-57N, خط طول: 131-15E, ارتفاع: 5 متر

مراقبة الطقس الحالي

تاريخ ووقت الإصدار 30 دقيقة قبل الساعة 01:00UTC
ريح 4 عقدة من الغرب
درجة الحرارة 26°درجة مئوية
الرطوبة 79%
ضغط 1010 hPa
الرؤية 10 كم أو أكثر
غيوم قليلة على ارتفاع 2000 قدم
غيوم متفرقة على ارتفاع 3000 قدم
غيوم مفككة

METAR: RJDC 250100Z 26004KT 9999 FEW020 SCT030 BKN/// 26/22 Q1010

زمن: 10:30 (01:30 UTC)


TAF: مفقودة

أرصاد الطقس والتوقعات من أكثر من 4000 مطار (تقارير الطقس للمطار METAR والتنبؤ بالطقس بالمطارTAF).

المحطات المتاحة هي النقط الصفراء والحمراء على الخريطة.

حرك المؤشر فوق النقطة لمعرفة اسم المحطة.

ثم انقر لمعرفة أرصاد وتوقعات الطقس.

لتغيير الخارطة: اضغط على الأزرار الخضراء مع رمز الصليب الأسود للتكبير. على الزر الأخضر مع شرطة للتصغير، أو على الأسهم الخضراء للخرائط المجاورة.


METAR-TAF: